< < Back
Terminal Aerodrome Forecast


Current Version              Previous Versions:   1  2  3  4  5  6  7  8  9  

Terminal Aerodrome Forecast

279
FTUS42 KFFC 182144 AAB
TAFFTY
TAF AMD
KFTY 182144Z 1822/1918 12005KT P6SM -RA SCT020 BKN030
     FM190400 13004KT 6SM -RA OVC015
     FM190600 13004KT 4SM -SHRA BR OVC005
     FM191400 19008KT 6SM -SHRA BKN010 OVC025 PROB30 1914/1918 3SM
      TSRA BKN010CB OVC012=



Latest METAR

393
SAUS70 KWBC 190400 RRD
MTRFTY
METAR KFTY 190353Z 00000KT 10SM SCT006 BKN023 OVC060 18/17 A2995 RMK AO2
SLP136 T01780172 $


USA.gov is the U.S. government's official web portal to all federal, state and local government web resources and services.